Aviation Digital Data Service (ADDS)

Output produced by METARs form (0628 UTC 07 December 2022)
found at http://www.aviationweather.gov/metar/data/
 
METAR text: LGKR 070620Z VRB02KT 9999 FEW017 SCT025 15/13 Q1013 NOSIG
Conditions at: LGKR (IOANNIS KAPODIST, GR) observed 0620 UTC 07 December 2022
Temperature: 15.0°C (59°F)
Dewpoint: 13.0°C (55°F) [RH = 88%]
Pressure (altimeter): 29.91 inches Hg (1013.0 mb)
Winds: variable direction winds at 2 MPH (2 knots; 1.0 m/s)
Visibility: 6 or more miles (10+ km)
Ceiling: at least 12,000 feet AGL
Clouds: few clouds at 1700 feet AGL
scattered clouds at 2500 feet AGL
Weather: no significant weather observed at this time

METAR text: LGKR 070550Z 11005KT 9999 FEW017 SCT025 15/13 Q1013 NOSIG
Conditions at: LGKR (IOANNIS KAPODIST, GR) observed 0550 UTC 07 December 2022
Temperature: 15.0°C (59°F)
Dewpoint: 13.0°C (55°F) [RH = 88%]
Pressure (altimeter): 29.91 inches Hg (1013.0 mb)
Winds: from the ESE (110 degrees) at 6 MPH (5 knots; 2.6 m/s)
Visibility: 6 or more miles (10+ km)
Ceiling: at least 12,000 feet AGL
Clouds: few clouds at 1700 feet AGL
scattered clouds at 2500 feet AGL
Weather: no significant weather observed at this time

METAR text: LGKR 070520Z 11007KT 9999 FEW017 SCT030 15/12 Q1013 NOSIG
Conditions at: LGKR (IOANNIS KAPODIST, GR) observed 0520 UTC 07 December 2022
Temperature: 15.0°C (59°F)
Dewpoint: 12.0°C (54°F) [RH = 82%]
Pressure (altimeter): 29.91 inches Hg (1013.0 mb)
Winds: from the ESE (110 degrees) at 8 MPH (7 knots; 3.6 m/s)
Visibility: 6 or more miles (10+ km)
Ceiling: at least 12,000 feet AGL
Clouds: few clouds at 1700 feet AGL
scattered clouds at 3000 feet AGL
Weather: no significant weather observed at this time

METAR text: LGKR 070450Z VRB03KT 9999 FEW017 BKN030 15/12 Q1013 NOSIG
Conditions at: LGKR (IOANNIS KAPODIST, GR) observed 0450 UTC 07 December 2022
Temperature: 15.0°C (59°F)
Dewpoint: 12.0°C (54°F) [RH = 82%]
Pressure (altimeter): 29.91 inches Hg (1013.0 mb)
Winds: variable direction winds at 3 MPH (3 knots; 1.5 m/s)
Visibility: 6 or more miles (10+ km)
Ceiling: 3000 feet AGL
Clouds: few clouds at 1700 feet AGL
broken clouds at 3000 feet AGL
Weather: no significant weather observed at this time

METAR text: LGKR 070420Z 11005KT 9999 FEW016 BKN030 15/13 Q1013 NOSIG
Conditions at: LGKR (IOANNIS KAPODIST, GR) observed 0420 UTC 07 December 2022
Temperature: 15.0°C (59°F)
Dewpoint: 13.0°C (55°F) [RH = 88%]
Pressure (altimeter): 29.91 inches Hg (1013.0 mb)
Winds: from the ESE (110 degrees) at 6 MPH (5 knots; 2.6 m/s)
Visibility: 6 or more miles (10+ km)
Ceiling: 3000 feet AGL
Clouds: few clouds at 1600 feet AGL
broken clouds at 3000 feet AGL
Weather: no significant weather observed at this time

METAR text: LGKR 070350Z 10006KT 9999 FEW016 BKN030 15/13 Q1013 NOSIG
Conditions at: LGKR (IOANNIS KAPODIST, GR) observed 0350 UTC 07 December 2022
Temperature: 15.0°C (59°F)
Dewpoint: 13.0°C (55°F) [RH = 88%]
Pressure (altimeter): 29.91 inches Hg (1013.0 mb)
Winds: from the E (100 degrees) at 7 MPH (6 knots; 3.1 m/s)
Visibility: 6 or more miles (10+ km)
Ceiling: 3000 feet AGL
Clouds: few clouds at 1600 feet AGL
broken clouds at 3000 feet AGL
Weather: no significant weather observed at this time

METAR text: LGKR 070320Z 11007KT 9999 FEW016 BKN025 BKN080 16/13 Q1014 NOSIG
Conditions at: LGKR (IOANNIS KAPODIST, GR) observed 0320 UTC 07 December 2022
Temperature: 16.0°C (61°F)
Dewpoint: 13.0°C (55°F) [RH = 82%]
Pressure (altimeter): 29.94 inches Hg (1014.0 mb)
Winds: from the ESE (110 degrees) at 8 MPH (7 knots; 3.6 m/s)
Visibility: 6 or more miles (10+ km)
Ceiling: 2500 feet AGL
Clouds: few clouds at 1600 feet AGL
broken clouds at 2500 feet AGL
broken clouds at 8000 feet AGL
Weather: no significant weather observed at this time

METAR text: LGKR 070250Z 14011KT 9999 FEW016 SCT025 BKN080 16/13 Q1014 NOSIG
Conditions at: LGKR (IOANNIS KAPODIST, GR) observed 0250 UTC 07 December 2022
Temperature: 16.0°C (61°F)
Dewpoint: 13.0°C (55°F) [RH = 82%]
Pressure (altimeter): 29.94 inches Hg (1014.0 mb)
Winds: from the SE (140 degrees) at 13 MPH (11 knots; 5.7 m/s)
Visibility: 6 or more miles (10+ km)
Ceiling: 8000 feet AGL
Clouds: few clouds at 1600 feet AGL
scattered clouds at 2500 feet AGL
broken clouds at 8000 feet AGL
Weather: no significant weather observed at this time

METAR text: LGKR 070220Z 13011KT 9999 FEW016 SCT025 16/13 Q1014 NOSIG
Conditions at: LGKR (IOANNIS KAPODIST, GR) observed 0220 UTC 07 December 2022
Temperature: 16.0°C (61°F)
Dewpoint: 13.0°C (55°F) [RH = 82%]
Pressure (altimeter): 29.94 inches Hg (1014.0 mb)
Winds: from the SE (130 degrees) at 13 MPH (11 knots; 5.7 m/s)
Visibility: 6 or more miles (10+ km)
Ceiling: at least 12,000 feet AGL
Clouds: few clouds at 1600 feet AGL
scattered clouds at 2500 feet AGL
Weather: no significant weather observed at this time

METAR text: LGKR 070150Z 13013KT 9999 FEW016 SCT025 16/13 Q1014 NOSIG
Conditions at: LGKR (IOANNIS KAPODIST, GR) observed 0150 UTC 07 December 2022
Temperature: 16.0°C (61°F)
Dewpoint: 13.0°C (55°F) [RH = 82%]
Pressure (altimeter): 29.94 inches Hg (1014.0 mb)
Winds: from the SE (130 degrees) at 15 MPH (13 knots; 6.7 m/s)
Visibility: 6 or more miles (10+ km)
Ceiling: at least 12,000 feet AGL
Clouds: few clouds at 1600 feet AGL
scattered clouds at 2500 feet AGL
Weather: no significant weather observed at this time

METAR text: LGKR 070120Z 12011KT 9999 FEW016 BKN025 16/13 Q1015 TEMPO RA
Conditions at: LGKR (IOANNIS KAPODIST, GR) observed 0120 UTC 07 December 2022
Temperature: 16.0°C (61°F)
Dewpoint: 13.0°C (55°F) [RH = 82%]
Pressure (altimeter): 29.97 inches Hg (1015.0 mb)
Winds: from the ESE (120 degrees) at 13 MPH (11 knots; 5.7 m/s)
Visibility: 6 or more miles (10+ km)
Ceiling: 2500 feet AGL
Clouds: few clouds at 1600 feet AGL
broken clouds at 2500 feet AGL
Weather: no significant weather observed at this time

METAR text: LGKR 070050Z 12007KT 9999 FEW016 BKN025 16/13 Q1015 TEMPO RA
Conditions at: LGKR (IOANNIS KAPODIST, GR) observed 0050 UTC 07 December 2022
Temperature: 16.0°C (61°F)
Dewpoint: 13.0°C (55°F) [RH = 82%]
Pressure (altimeter): 29.97 inches Hg (1015.0 mb)
Winds: from the ESE (120 degrees) at 8 MPH (7 knots; 3.6 m/s)
Visibility: 6 or more miles (10+ km)
Ceiling: 2500 feet AGL
Clouds: few clouds at 1600 feet AGL
broken clouds at 2500 feet AGL
Weather: no significant weather observed at this time

METAR text: LGKR 070020Z 11006KT 9999 FEW016 BKN025 16/12 Q1015 TEMPO RA
Conditions at: LGKR (IOANNIS KAPODIST, GR) observed 0020 UTC 07 December 2022
Temperature: 16.0°C (61°F)
Dewpoint: 12.0°C (54°F) [RH = 77%]
Pressure (altimeter): 29.97 inches Hg (1015.0 mb)
Winds: from the ESE (110 degrees) at 7 MPH (6 knots; 3.1 m/s)
Visibility: 6 or more miles (10+ km)
Ceiling: 2500 feet AGL
Clouds: few clouds at 1600 feet AGL
broken clouds at 2500 feet AGL
Weather: no significant weather observed at this time

METAR text: LGKR 062350Z 12008KT 9999 -RA FEW016 BKN025 16/10 Q1015 TEMPO RA
Conditions at: LGKR (IOANNIS KAPODIST, GR) observed 2350 UTC 06 December 2022
Temperature: 16.0°C (61°F)
Dewpoint: 10.0°C (50°F) [RH = 68%]
Pressure (altimeter): 29.97 inches Hg (1015.0 mb)
Winds: from the ESE (120 degrees) at 9 MPH (8 knots; 4.1 m/s)
Visibility: 6 or more miles (10+ km)
Ceiling: 2500 feet AGL
Clouds: few clouds at 1600 feet AGL
broken clouds at 2500 feet AGL
Weather: -RA  (light rain)

METAR text: LGKR 062320Z 13006KT 9999 SCT025 16/10 Q1016 NOSIG
Conditions at: LGKR (IOANNIS KAPODIST, GR) observed 2320 UTC 06 December 2022
Temperature: 16.0°C (61°F)
Dewpoint: 10.0°C (50°F) [RH = 68%]
Pressure (altimeter): 30.00 inches Hg (1016.0 mb)
Winds: from the SE (130 degrees) at 7 MPH (6 knots; 3.1 m/s)
Visibility: 6 or more miles (10+ km)
Ceiling: at least 12,000 feet AGL
Clouds: scattered clouds at 2500 feet AGL
Weather: no significant weather observed at this time

METAR text: LGKR 062250Z 12005KT 9999 SCT025 16/10 Q1016 NOSIG
Conditions at: LGKR (IOANNIS KAPODIST, GR) observed 2250 UTC 06 December 2022
Temperature: 16.0°C (61°F)
Dewpoint: 10.0°C (50°F) [RH = 68%]
Pressure (altimeter): 30.00 inches Hg (1016.0 mb)
Winds: from the ESE (120 degrees) at 6 MPH (5 knots; 2.6 m/s)
Visibility: 6 or more miles (10+ km)
Ceiling: at least 12,000 feet AGL
Clouds: scattered clouds at 2500 feet AGL
Weather: no significant weather observed at this time

METAR text: LGKR 062220Z 08005KT 9999 SCT025 16/11 Q1016 NOSIG
Conditions at: LGKR (IOANNIS KAPODIST, GR) observed 2220 UTC 06 December 2022
Temperature: 16.0°C (61°F)
Dewpoint: 11.0°C (52°F) [RH = 72%]
Pressure (altimeter): 30.00 inches Hg (1016.0 mb)
Winds: from the E (80 degrees) at 6 MPH (5 knots; 2.6 m/s)
Visibility: 6 or more miles (10+ km)
Ceiling: at least 12,000 feet AGL
Clouds: scattered clouds at 2500 feet AGL
Weather: no significant weather observed at this time

METAR text: LGKR 062150Z 10005KT 9999 SCT025 16/11 Q1016 NOSIG
Conditions at: LGKR (IOANNIS KAPODIST, GR) observed 2150 UTC 06 December 2022
Temperature: 16.0°C (61°F)
Dewpoint: 11.0°C (52°F) [RH = 72%]
Pressure (altimeter): 30.00 inches Hg (1016.0 mb)
Winds: from the E (100 degrees) at 6 MPH (5 knots; 2.6 m/s)
Visibility: 6 or more miles (10+ km)
Ceiling: at least 12,000 feet AGL
Clouds: scattered clouds at 2500 feet AGL
Weather: no significant weather observed at this time

METAR text: LGKR 062120Z 12006KT 9999 SCT025 16/11 Q1016 NOSIG
Conditions at: LGKR (IOANNIS KAPODIST, GR) observed 2120 UTC 06 December 2022
Temperature: 16.0°C (61°F)
Dewpoint: 11.0°C (52°F) [RH = 72%]
Pressure (altimeter): 30.00 inches Hg (1016.0 mb)
Winds: from the ESE (120 degrees) at 7 MPH (6 knots; 3.1 m/s)
Visibility: 6 or more miles (10+ km)
Ceiling: at least 12,000 feet AGL
Clouds: scattered clouds at 2500 feet AGL
Weather: no significant weather observed at this time

METAR text: LGKR 062050Z 08004KT 9999 SCT025 16/11 Q1016 NOSIG
Conditions at: LGKR (IOANNIS KAPODIST, GR) observed 2050 UTC 06 December 2022
Temperature: 16.0°C (61°F)
Dewpoint: 11.0°C (52°F) [RH = 72%]
Pressure (altimeter): 30.00 inches Hg (1016.0 mb)
Winds: from the E (80 degrees) at 5 MPH (4 knots; 2.1 m/s)
Visibility: 6 or more miles (10+ km)
Ceiling: at least 12,000 feet AGL
Clouds: scattered clouds at 2500 feet AGL
Weather: no significant weather observed at this time

METAR text: LGKR 062020Z 05004KT 9999 SCT025 16/11 Q1016 NOSIG
Conditions at: LGKR (IOANNIS KAPODIST, GR) observed 2020 UTC 06 December 2022
Temperature: 16.0°C (61°F)
Dewpoint: 11.0°C (52°F) [RH = 72%]
Pressure (altimeter): 30.00 inches Hg (1016.0 mb)
Winds: from the NE (50 degrees) at 5 MPH (4 knots; 2.1 m/s)
Visibility: 6 or more miles (10+ km)
Ceiling: at least 12,000 feet AGL
Clouds: scattered clouds at 2500 feet AGL
Weather: no significant weather observed at this time

METAR text: LGKR 061950Z 11006KT 9999 SCT025 16/11 Q1016 NOSIG
Conditions at: LGKR (IOANNIS KAPODIST, GR) observed 1950 UTC 06 December 2022
Temperature: 16.0°C (61°F)
Dewpoint: 11.0°C (52°F) [RH = 72%]
Pressure (altimeter): 30.00 inches Hg (1016.0 mb)
Winds: from the ESE (110 degrees) at 7 MPH (6 knots; 3.1 m/s)
Visibility: 6 or more miles (10+ km)
Ceiling: at least 12,000 feet AGL
Clouds: scattered clouds at 2500 feet AGL
Weather: no significant weather observed at this time

METAR text: LGKR 061920Z 12008KT 9999 FEW016 SCT025 16/11 Q1016 NOSIG
Conditions at: LGKR (IOANNIS KAPODIST, GR) observed 1920 UTC 06 December 2022
Temperature: 16.0°C (61°F)
Dewpoint: 11.0°C (52°F) [RH = 72%]
Pressure (altimeter): 30.00 inches Hg (1016.0 mb)
Winds: from the ESE (120 degrees) at 9 MPH (8 knots; 4.1 m/s)
Visibility: 6 or more miles (10+ km)
Ceiling: at least 12,000 feet AGL
Clouds: few clouds at 1600 feet AGL
scattered clouds at 2500 feet AGL
Weather: no significant weather observed at this time

METAR text: LGKR 061850Z 12006KT 9999 FEW016 SCT025 16/11 Q1016 NOSIG
Conditions at: LGKR (IOANNIS KAPODIST, GR) observed 1850 UTC 06 December 2022
Temperature: 16.0°C (61°F)
Dewpoint: 11.0°C (52°F) [RH = 72%]
Pressure (altimeter): 30.00 inches Hg (1016.0 mb)
Winds: from the ESE (120 degrees) at 7 MPH (6 knots; 3.1 m/s)
Visibility: 6 or more miles (10+ km)
Ceiling: at least 12,000 feet AGL
Clouds: few clouds at 1600 feet AGL
scattered clouds at 2500 feet AGL
Weather: no significant weather observed at this time

METAR text: LGKR 061820Z 10007KT 9999 FEW015 SCT025 16/12 Q1017 NOSIG
Conditions at: LGKR (IOANNIS KAPODIST, GR) observed 1820 UTC 06 December 2022
Temperature: 16.0°C (61°F)
Dewpoint: 12.0°C (54°F) [RH = 77%]
Pressure (altimeter): 30.03 inches Hg (1017.0 mb)
Winds: from the E (100 degrees) at 8 MPH (7 knots; 3.6 m/s)
Visibility: 6 or more miles (10+ km)
Ceiling: at least 12,000 feet AGL
Clouds: few clouds at 1500 feet AGL
scattered clouds at 2500 feet AGL
Weather: no significant weather observed at this time

METAR text: LGKR 061750Z 14009KT 9999 SCT015 SCT025 16/12 Q1017 NOSIG
Conditions at: LGKR (IOANNIS KAPODIST, GR) observed 1750 UTC 06 December 2022
Temperature: 16.0°C (61°F)
Dewpoint: 12.0°C (54°F) [RH = 77%]
Pressure (altimeter): 30.03 inches Hg (1017.0 mb)
Winds: from the SE (140 degrees) at 10 MPH (9 knots; 4.6 m/s)
Visibility: 6 or more miles (10+ km)
Ceiling: at least 12,000 feet AGL
Clouds: scattered clouds at 1500 feet AGL
scattered clouds at 2500 feet AGL
Weather: no significant weather observed at this time

METAR text: LGKR 061720Z 14010KT 9999 SCT015 BKN025 16/11 Q1017 NOSIG
Conditions at: LGKR (IOANNIS KAPODIST, GR) observed 1720 UTC 06 December 2022
Temperature: 16.0°C (61°F)
Dewpoint: 11.0°C (52°F) [RH = 72%]
Pressure (altimeter): 30.03 inches Hg (1017.0 mb)
Winds: from the SE (140 degrees) at 12 MPH (10 knots; 5.1 m/s)
Visibility: 6 or more miles (10+ km)
Ceiling: 2500 feet AGL
Clouds: scattered clouds at 1500 feet AGL
broken clouds at 2500 feet AGL
Weather: no significant weather observed at this time

METAR text: LGKR 061650Z 14011KT 9999 SCT015 BKN025 16/11 Q1017 NOSIG
Conditions at: LGKR (IOANNIS KAPODIST, GR) observed 1650 UTC 06 December 2022
Temperature: 16.0°C (61°F)
Dewpoint: 11.0°C (52°F) [RH = 72%]
Pressure (altimeter): 30.03 inches Hg (1017.0 mb)
Winds: from the SE (140 degrees) at 13 MPH (11 knots; 5.7 m/s)
Visibility: 6 or more miles (10+ km)
Ceiling: 2500 feet AGL
Clouds: scattered clouds at 1500 feet AGL
broken clouds at 2500 feet AGL
Weather: no significant weather observed at this time

METAR text: LGKR 061620Z 14011KT 9999 SCT015 BKN025 16/12 Q1017 NOSIG
Conditions at: LGKR (IOANNIS KAPODIST, GR) observed 1620 UTC 06 December 2022
Temperature: 16.0°C (61°F)
Dewpoint: 12.0°C (54°F) [RH = 77%]
Pressure (altimeter): 30.03 inches Hg (1017.0 mb)
Winds: from the SE (140 degrees) at 13 MPH (11 knots; 5.7 m/s)
Visibility: 6 or more miles (10+ km)
Ceiling: 2500 feet AGL
Clouds: scattered clouds at 1500 feet AGL
broken clouds at 2500 feet AGL
Weather: no significant weather observed at this time

METAR text: LGKR 061550Z 15008KT 9999 SCT015 BKN025 16/12 Q1017 NOSIG
Conditions at: LGKR (IOANNIS KAPODIST, GR) observed 1550 UTC 06 December 2022
Temperature: 16.0°C (61°F)
Dewpoint: 12.0°C (54°F) [RH = 77%]
Pressure (altimeter): 30.03 inches Hg (1017.0 mb)
Winds: from the SSE (150 degrees) at 9 MPH (8 knots; 4.1 m/s)
Visibility: 6 or more miles (10+ km)
Ceiling: 2500 feet AGL
Clouds: scattered clouds at 1500 feet AGL
broken clouds at 2500 feet AGL
Weather: no significant weather observed at this time

METAR text: LGKR 061520Z 14008KT 9999 SCT015 SCT025 16/11 Q1017 NOSIG
Conditions at: LGKR (IOANNIS KAPODIST, GR) observed 1520 UTC 06 December 2022
Temperature: 16.0°C (61°F)
Dewpoint: 11.0°C (52°F) [RH = 72%]
Pressure (altimeter): 30.03 inches Hg (1017.0 mb)
Winds: from the SE (140 degrees) at 9 MPH (8 knots; 4.1 m/s)
Visibility: 6 or more miles (10+ km)
Ceiling: at least 12,000 feet AGL
Clouds: scattered clouds at 1500 feet AGL
scattered clouds at 2500 feet AGL
Weather: no significant weather observed at this time

METAR text: LGKR 061450Z 15008KT 9999 SCT015 SCT025 17/12 Q1017 NOSIG
Conditions at: LGKR (IOANNIS KAPODIST, GR) observed 1450 UTC 06 December 2022
Temperature: 17.0°C (63°F)
Dewpoint: 12.0°C (54°F) [RH = 72%]
Pressure (altimeter): 30.03 inches Hg (1017.0 mb)
Winds: from the SSE (150 degrees) at 9 MPH (8 knots; 4.1 m/s)
Visibility: 6 or more miles (10+ km)
Ceiling: at least 12,000 feet AGL
Clouds: scattered clouds at 1500 feet AGL
scattered clouds at 2500 feet AGL
Weather: no significant weather observed at this time

METAR text: LGKR 061420Z 15009KT 9999 SCT015 SCT025 18/14 Q1017 NOSIG
Conditions at: LGKR (IOANNIS KAPODIST, GR) observed 1420 UTC 06 December 2022
Temperature: 18.0°C (64°F)
Dewpoint: 14.0°C (57°F) [RH = 77%]
Pressure (altimeter): 30.03 inches Hg (1017.0 mb)
Winds: from the SSE (150 degrees) at 10 MPH (9 knots; 4.6 m/s)
Visibility: 6 or more miles (10+ km)
Ceiling: at least 12,000 feet AGL
Clouds: scattered clouds at 1500 feet AGL
scattered clouds at 2500 feet AGL
Weather: no significant weather observed at this time

METAR text: LGKR 061350Z 15009KT 9999 SCT015 SCT025 18/14 Q1017 NOSIG
Conditions at: LGKR (IOANNIS KAPODIST, GR) observed 1350 UTC 06 December 2022
Temperature: 18.0°C (64°F)
Dewpoint: 14.0°C (57°F) [RH = 77%]
Pressure (altimeter): 30.03 inches Hg (1017.0 mb)
Winds: from the SSE (150 degrees) at 10 MPH (9 knots; 4.6 m/s)
Visibility: 6 or more miles (10+ km)
Ceiling: at least 12,000 feet AGL
Clouds: scattered clouds at 1500 feet AGL
scattered clouds at 2500 feet AGL
Weather: no significant weather observed at this time

METAR text: LGKR 061320Z 15009KT 9999 SCT015 SCT025 18/14 Q1017 NOSIG
Conditions at: LGKR (IOANNIS KAPODIST, GR) observed 1320 UTC 06 December 2022
Temperature: 18.0°C (64°F)
Dewpoint: 14.0°C (57°F) [RH = 77%]
Pressure (altimeter): 30.03 inches Hg (1017.0 mb)
Winds: from the SSE (150 degrees) at 10 MPH (9 knots; 4.6 m/s)
Visibility: 6 or more miles (10+ km)
Ceiling: at least 12,000 feet AGL
Clouds: scattered clouds at 1500 feet AGL
scattered clouds at 2500 feet AGL
Weather: no significant weather observed at this time

METAR text: LGKR 061250Z 15009KT 9999 SCT015 SCT025 18/14 Q1017 NOSIG
Conditions at: LGKR (IOANNIS KAPODIST, GR) observed 1250 UTC 06 December 2022
Temperature: 18.0°C (64°F)
Dewpoint: 14.0°C (57°F) [RH = 77%]
Pressure (altimeter): 30.03 inches Hg (1017.0 mb)
Winds: from the SSE (150 degrees) at 10 MPH (9 knots; 4.6 m/s)
Visibility: 6 or more miles (10+ km)
Ceiling: at least 12,000 feet AGL
Clouds: scattered clouds at 1500 feet AGL
scattered clouds at 2500 feet AGL
Weather: no significant weather observed at this time

METAR text: LGKR 061220Z 14009KT 9999 SCT015 SCT025 18/14 Q1017 NOSIG
Conditions at: LGKR (IOANNIS KAPODIST, GR) observed 1220 UTC 06 December 2022
Temperature: 18.0°C (64°F)
Dewpoint: 14.0°C (57°F) [RH = 77%]
Pressure (altimeter): 30.03 inches Hg (1017.0 mb)
Winds: from the SE (140 degrees) at 10 MPH (9 knots; 4.6 m/s)
Visibility: 6 or more miles (10+ km)
Ceiling: at least 12,000 feet AGL
Clouds: scattered clouds at 1500 feet AGL
scattered clouds at 2500 feet AGL
Weather: no significant weather observed at this time

METAR text: LGKR 061150Z 15013KT 9999 SCT015 SCT025 18/15 Q1018 NOSIG
Conditions at: LGKR (IOANNIS KAPODIST, GR) observed 1150 UTC 06 December 2022
Temperature: 18.0°C (64°F)
Dewpoint: 15.0°C (59°F) [RH = 83%]
Pressure (altimeter): 30.06 inches Hg (1018.0 mb)
Winds: from the SSE (150 degrees) at 15 MPH (13 knots; 6.7 m/s)
Visibility: 6 or more miles (10+ km)
Ceiling: at least 12,000 feet AGL
Clouds: scattered clouds at 1500 feet AGL
scattered clouds at 2500 feet AGL
Weather: no significant weather observed at this time

METAR text: LGKR 061120Z 15013KT 9999 SCT015 SCT025 18/15 Q1018 NOSIG
Conditions at: LGKR (IOANNIS KAPODIST, GR) observed 1120 UTC 06 December 2022
Temperature: 18.0°C (64°F)
Dewpoint: 15.0°C (59°F) [RH = 83%]
Pressure (altimeter): 30.06 inches Hg (1018.0 mb)
Winds: from the SSE (150 degrees) at 15 MPH (13 knots; 6.7 m/s)
Visibility: 6 or more miles (10+ km)
Ceiling: at least 12,000 feet AGL
Clouds: scattered clouds at 1500 feet AGL
scattered clouds at 2500 feet AGL
Weather: no significant weather observed at this time

METAR text: LGKR 061050Z 14010KT 9999 SCT015 SCT025 18/15 Q1018 NOSIG
Conditions at: LGKR (IOANNIS KAPODIST, GR) observed 1050 UTC 06 December 2022
Temperature: 18.0°C (64°F)
Dewpoint: 15.0°C (59°F) [RH = 83%]
Pressure (altimeter): 30.06 inches Hg (1018.0 mb)
Winds: from the SE (140 degrees) at 12 MPH (10 knots; 5.1 m/s)
Visibility: 6 or more miles (10+ km)
Ceiling: at least 12,000 feet AGL
Clouds: scattered clouds at 1500 feet AGL
scattered clouds at 2500 feet AGL
Weather: no significant weather observed at this time

METAR text: LGKR 061020Z 14013KT 9999 SCT015 BKN025 17/15 Q1019 NOSIG
Conditions at: LGKR (IOANNIS KAPODIST, GR) observed 1020 UTC 06 December 2022
Temperature: 17.0°C (63°F)
Dewpoint: 15.0°C (59°F) [RH = 88%]
Pressure (altimeter): 30.09 inches Hg (1019.0 mb)
Winds: from the SE (140 degrees) at 15 MPH (13 knots; 6.7 m/s)
Visibility: 6 or more miles (10+ km)
Ceiling: 2500 feet AGL
Clouds: scattered clouds at 1500 feet AGL
broken clouds at 2500 feet AGL
Weather: no significant weather observed at this time

METAR text: LGKR 060950Z 12009KT 9999 SCT015 BKN025 17/15 Q1019 NOSIG
Conditions at: LGKR (IOANNIS KAPODIST, GR) observed 0950 UTC 06 December 2022
Temperature: 17.0°C (63°F)
Dewpoint: 15.0°C (59°F) [RH = 88%]
Pressure (altimeter): 30.09 inches Hg (1019.0 mb)
Winds: from the ESE (120 degrees) at 10 MPH (9 knots; 4.6 m/s)
Visibility: 6 or more miles (10+ km)
Ceiling: 2500 feet AGL
Clouds: scattered clouds at 1500 feet AGL
broken clouds at 2500 feet AGL
Weather: no significant weather observed at this time

METAR text: LGKR 060920Z 12009KT 9999 FEW015 SCT025 16/14 Q1019 NOSIG
Conditions at: LGKR (IOANNIS KAPODIST, GR) observed 0920 UTC 06 December 2022
Temperature: 16.0°C (61°F)
Dewpoint: 14.0°C (57°F) [RH = 88%]
Pressure (altimeter): 30.09 inches Hg (1019.0 mb)
Winds: from the ESE (120 degrees) at 10 MPH (9 knots; 4.6 m/s)
Visibility: 6 or more miles (10+ km)
Ceiling: at least 12,000 feet AGL
Clouds: few clouds at 1500 feet AGL
scattered clouds at 2500 feet AGL
Weather: no significant weather observed at this time

METAR text: LGKR 060850Z 12007KT 9999 FEW015 SCT025 16/14 Q1019 NOSIG
Conditions at: LGKR (IOANNIS KAPODIST, GR) observed 0850 UTC 06 December 2022
Temperature: 16.0°C (61°F)
Dewpoint: 14.0°C (57°F) [RH = 88%]
Pressure (altimeter): 30.09 inches Hg (1019.0 mb)
Winds: from the ESE (120 degrees) at 8 MPH (7 knots; 3.6 m/s)
Visibility: 6 or more miles (10+ km)
Ceiling: at least 12,000 feet AGL
Clouds: few clouds at 1500 feet AGL
scattered clouds at 2500 feet AGL
Weather: no significant weather observed at this time

METAR text: LGKR 060820Z 13005KT 9999 FEW015 SCT020 13/12 Q1019 NOSIG
Conditions at: LGKR (IOANNIS KAPODIST, GR) observed 0820 UTC 06 December 2022
Temperature: 13.0°C (55°F)
Dewpoint: 12.0°C (54°F) [RH = 94%]
Pressure (altimeter): 30.09 inches Hg (1019.0 mb)
Winds: from the SE (130 degrees) at 6 MPH (5 knots; 2.6 m/s)
Visibility: 6 or more miles (10+ km)
Ceiling: at least 12,000 feet AGL
Clouds: few clouds at 1500 feet AGL
scattered clouds at 2000 feet AGL
Weather: no significant weather observed at this time

METAR text: LGKR 060750Z 12005KT 9999 FEW015 SCT020 13/12 Q1019 NOSIG
Conditions at: LGKR (IOANNIS KAPODIST, GR) observed 0750 UTC 06 December 2022
Temperature: 13.0°C (55°F)
Dewpoint: 12.0°C (54°F) [RH = 94%]
Pressure (altimeter): 30.09 inches Hg (1019.0 mb)
Winds: from the ESE (120 degrees) at 6 MPH (5 knots; 2.6 m/s)
Visibility: 6 or more miles (10+ km)
Ceiling: at least 12,000 feet AGL
Clouds: few clouds at 1500 feet AGL
scattered clouds at 2000 feet AGL
Weather: no significant weather observed at this time

METAR text: LGKR 060650Z 00000KT 9999 FEW015 SCT020 10/10 Q1019 NOSIG
Conditions at: LGKR (IOANNIS KAPODIST, GR) observed 0650 UTC 06 December 2022
Temperature: 10.0°C (50°F)
Dewpoint: 10.0°C (50°F) [RH = 100%]
Pressure (altimeter): 30.09 inches Hg (1019.0 mb)
Winds: calm
Visibility: 6 or more miles (10+ km)
Ceiling: at least 12,000 feet AGL
Clouds: few clouds at 1500 feet AGL
scattered clouds at 2000 feet AGL
Weather: no significant weather observed at this time

METAR text: LGKR 060620Z 00000KT 9999 FEW015 SCT020 10/10 Q1019 NOSIG
Conditions at: LGKR (IOANNIS KAPODIST, GR) observed 0620 UTC 06 December 2022
Temperature: 10.0°C (50°F)
Dewpoint: 10.0°C (50°F) [RH = 100%]
Pressure (altimeter): 30.09 inches Hg (1019.0 mb)
Winds: calm
Visibility: 6 or more miles (10+ km)
Ceiling: at least 12,000 feet AGL
Clouds: few clouds at 1500 feet AGL
scattered clouds at 2000 feet AGL
Weather: no significant weather observed at this time

METAR text: LGKR 060550Z 00000KT 9999 FEW016 SCT025 10/10 Q1019 NOSIG
Conditions at: LGKR (IOANNIS KAPODIST, GR) observed 0550 UTC 06 December 2022
Temperature: 10.0°C (50°F)
Dewpoint: 10.0°C (50°F) [RH = 100%]
Pressure (altimeter): 30.09 inches Hg (1019.0 mb)
Winds: calm
Visibility: 6 or more miles (10+ km)
Ceiling: at least 12,000 feet AGL
Clouds: few clouds at 1600 feet AGL
scattered clouds at 2500 feet AGL
Weather: no significant weather observed at this time

METAR text: LGKR 060520Z 00000KT 9999 FEW016 SCT030 10/09 Q1019 NOSIG
Conditions at: LGKR (IOANNIS KAPODIST, GR) observed 0520 UTC 06 December 2022
Temperature: 10.0°C (50°F)
Dewpoint: 9.0°C (48°F) [RH = 93%]
Pressure (altimeter): 30.09 inches Hg (1019.0 mb)
Winds: calm
Visibility: 6 or more miles (10+ km)
Ceiling: at least 12,000 feet AGL
Clouds: few clouds at 1600 feet AGL
scattered clouds at 3000 feet AGL
Weather: no significant weather observed at this time

METAR text: LGKR 060450Z 00000KT 9999 FEW016 10/09 Q1019 NOSIG
Conditions at: LGKR (IOANNIS KAPODIST, GR) observed 0450 UTC 06 December 2022
Temperature: 10.0°C (50°F)
Dewpoint: 9.0°C (48°F) [RH = 93%]
Pressure (altimeter): 30.09 inches Hg (1019.0 mb)
Winds: calm
Visibility: 6 or more miles (10+ km)
Ceiling: at least 12,000 feet AGL
Clouds: few clouds at 1600 feet AGL
Weather: no significant weather observed at this time

METAR text: LGKR 060420Z 00000KT 9999 FEW016 11/09 Q1019 NOSIG
Conditions at: LGKR (IOANNIS KAPODIST, GR) observed 0420 UTC 06 December 2022
Temperature: 11.0°C (52°F)
Dewpoint: 9.0°C (48°F) [RH = 87%]
Pressure (altimeter): 30.09 inches Hg (1019.0 mb)
Winds: calm
Visibility: 6 or more miles (10+ km)
Ceiling: at least 12,000 feet AGL
Clouds: few clouds at 1600 feet AGL
Weather: no significant weather observed at this time

METAR text: LGKR 060350Z 00000KT 9999 FEW016 11/09 Q1019 NOSIG
Conditions at: LGKR (IOANNIS KAPODIST, GR) observed 0350 UTC 06 December 2022
Temperature: 11.0°C (52°F)
Dewpoint: 9.0°C (48°F) [RH = 87%]
Pressure (altimeter): 30.09 inches Hg (1019.0 mb)
Winds: calm
Visibility: 6 or more miles (10+ km)
Ceiling: at least 12,000 feet AGL
Clouds: few clouds at 1600 feet AGL
Weather: no significant weather observed at this time

METAR text: LGKR 060320Z 00000KT 9999 SCT016 11/10 Q1020 NOSIG
Conditions at: LGKR (IOANNIS KAPODIST, GR) observed 0320 UTC 06 December 2022
Temperature: 11.0°C (52°F)
Dewpoint: 10.0°C (50°F) [RH = 94%]
Pressure (altimeter): 30.12 inches Hg (1020.0 mb)
Winds: calm
Visibility: 6 or more miles (10+ km)
Ceiling: at least 12,000 feet AGL
Clouds: scattered clouds at 1600 feet AGL
Weather: no significant weather observed at this time

METAR text: LGKR 060250Z 00000KT 9999 SCT016 11/10 Q1020 NOSIG
Conditions at: LGKR (IOANNIS KAPODIST, GR) observed 0250 UTC 06 December 2022
Temperature: 11.0°C (52°F)
Dewpoint: 10.0°C (50°F) [RH = 94%]
Pressure (altimeter): 30.12 inches Hg (1020.0 mb)
Winds: calm
Visibility: 6 or more miles (10+ km)
Ceiling: at least 12,000 feet AGL
Clouds: scattered clouds at 1600 feet AGL
Weather: no significant weather observed at this time

METAR text: LGKR 060220Z 00000KT 9999 FEW010 10/09 Q1020 NOSIG
Conditions at: LGKR (IOANNIS KAPODIST, GR) observed 0220 UTC 06 December 2022
Temperature: 10.0°C (50°F)
Dewpoint: 9.0°C (48°F) [RH = 93%]
Pressure (altimeter): 30.12 inches Hg (1020.0 mb)
Winds: calm
Visibility: 6 or more miles (10+ km)
Ceiling: at least 12,000 feet AGL
Clouds: few clouds at 1000 feet AGL
Weather: no significant weather observed at this time

METAR text: LGKR 060150Z 00000KT 9999 FEW010 10/09 Q1020 NOSIG
Conditions at: LGKR (IOANNIS KAPODIST, GR) observed 0150 UTC 06 December 2022
Temperature: 10.0°C (50°F)
Dewpoint: 9.0°C (48°F) [RH = 93%]
Pressure (altimeter): 30.12 inches Hg (1020.0 mb)
Winds: calm
Visibility: 6 or more miles (10+ km)
Ceiling: at least 12,000 feet AGL
Clouds: few clouds at 1000 feet AGL
Weather: no significant weather observed at this time

METAR text: LGKR 060120Z 00000KT 9999 FEW010 10/09 Q1020 NOSIG
Conditions at: LGKR (IOANNIS KAPODIST, GR) observed 0120 UTC 06 December 2022
Temperature: 10.0°C (50°F)
Dewpoint: 9.0°C (48°F) [RH = 93%]
Pressure (altimeter): 30.12 inches Hg (1020.0 mb)
Winds: calm
Visibility: 6 or more miles (10+ km)
Ceiling: at least 12,000 feet AGL
Clouds: few clouds at 1000 feet AGL
Weather: no significant weather observed at this time

METAR text: LGKR 060050Z 00000KT 9999 FEW010 10/09 Q1020 NOSIG
Conditions at: LGKR (IOANNIS KAPODIST, GR) observed 0050 UTC 06 December 2022
Temperature: 10.0°C (50°F)
Dewpoint: 9.0°C (48°F) [RH = 93%]
Pressure (altimeter): 30.12 inches Hg (1020.0 mb)
Winds: calm
Visibility: 6 or more miles (10+ km)
Ceiling: at least 12,000 feet AGL
Clouds: few clouds at 1000 feet AGL
Weather: no significant weather observed at this time

METAR text: LGKR 060020Z 00000KT 9999 FEW010 10/10 Q1021 NOSIG
Conditions at: LGKR (IOANNIS KAPODIST, GR) observed 0020 UTC 06 December 2022
Temperature: 10.0°C (50°F)
Dewpoint: 10.0°C (50°F) [RH = 100%]
Pressure (altimeter): 30.15 inches Hg (1021.0 mb)
Winds: calm
Visibility: 6 or more miles (10+ km)
Ceiling: at least 12,000 feet AGL
Clouds: few clouds at 1000 feet AGL
Weather: no significant weather observed at this time

METAR text: LGKR 052350Z 00000KT 9999 FEW010 10/10 Q1021 NOSIG
Conditions at: LGKR (IOANNIS KAPODIST, GR) observed 2350 UTC 05 December 2022
Temperature: 10.0°C (50°F)
Dewpoint: 10.0°C (50°F) [RH = 100%]
Pressure (altimeter): 30.15 inches Hg (1021.0 mb)
Winds: calm
Visibility: 6 or more miles (10+ km)
Ceiling: at least 12,000 feet AGL
Clouds: few clouds at 1000 feet AGL
Weather: no significant weather observed at this time

METAR text: LGKR 052320Z 00000KT 9999 FEW010 11/10 Q1021 NOSIG
Conditions at: LGKR (IOANNIS KAPODIST, GR) observed 2320 UTC 05 December 2022
Temperature: 11.0°C (52°F)
Dewpoint: 10.0°C (50°F) [RH = 94%]
Pressure (altimeter): 30.15 inches Hg (1021.0 mb)
Winds: calm
Visibility: 6 or more miles (10+ km)
Ceiling: at least 12,000 feet AGL
Clouds: few clouds at 1000 feet AGL
Weather: no significant weather observed at this time

METAR text: LGKR 052250Z 00000KT 9999 FEW010 11/10 Q1021 NOSIG
Conditions at: LGKR (IOANNIS KAPODIST, GR) observed 2250 UTC 05 December 2022
Temperature: 11.0°C (52°F)
Dewpoint: 10.0°C (50°F) [RH = 94%]
Pressure (altimeter): 30.15 inches Hg (1021.0 mb)
Winds: calm
Visibility: 6 or more miles (10+ km)
Ceiling: at least 12,000 feet AGL
Clouds: few clouds at 1000 feet AGL
Weather: no significant weather observed at this time

METAR text: LGKR 052220Z 00000KT 9999 FEW010 11/10 Q1021 NOSIG
Conditions at: LGKR (IOANNIS KAPODIST, GR) observed 2220 UTC 05 December 2022
Temperature: 11.0°C (52°F)
Dewpoint: 10.0°C (50°F) [RH = 94%]
Pressure (altimeter): 30.15 inches Hg (1021.0 mb)
Winds: calm
Visibility: 6 or more miles (10+ km)
Ceiling: at least 12,000 feet AGL
Clouds: few clouds at 1000 feet AGL
Weather: no significant weather observed at this time

METAR text: LGKR 052150Z 00000KT 9999 FEW010 11/10 Q1021 NOSIG
Conditions at: LGKR (IOANNIS KAPODIST, GR) observed 2150 UTC 05 December 2022
Temperature: 11.0°C (52°F)
Dewpoint: 10.0°C (50°F) [RH = 94%]
Pressure (altimeter): 30.15 inches Hg (1021.0 mb)
Winds: calm
Visibility: 6 or more miles (10+ km)
Ceiling: at least 12,000 feet AGL
Clouds: few clouds at 1000 feet AGL
Weather: no significant weather observed at this time

METAR text: LGKR 052120Z 00000KT 9999 FEW010 12/11 Q1021 NOSIG
Conditions at: LGKR (IOANNIS KAPODIST, GR) observed 2120 UTC 05 December 2022
Temperature: 12.0°C (54°F)
Dewpoint: 11.0°C (52°F) [RH = 94%]
Pressure (altimeter): 30.15 inches Hg (1021.0 mb)
Winds: calm
Visibility: 6 or more miles (10+ km)
Ceiling: at least 12,000 feet AGL
Clouds: few clouds at 1000 feet AGL
Weather: no significant weather observed at this time

METAR text: LGKR 052050Z 00000KT 9999 FEW010 12/11 Q1021 NOSIG
Conditions at: LGKR (IOANNIS KAPODIST, GR) observed 2050 UTC 05 December 2022
Temperature: 12.0°C (54°F)
Dewpoint: 11.0°C (52°F) [RH = 94%]
Pressure (altimeter): 30.15 inches Hg (1021.0 mb)
Winds: calm
Visibility: 6 or more miles (10+ km)
Ceiling: at least 12,000 feet AGL
Clouds: few clouds at 1000 feet AGL
Weather: no significant weather observed at this time

METAR text: LGKR 052020Z 00000KT 9999 FEW018 SCT025 12/11 Q1021 NOSIG
Conditions at: LGKR (IOANNIS KAPODIST, GR) observed 2020 UTC 05 December 2022
Temperature: 12.0°C (54°F)
Dewpoint: 11.0°C (52°F) [RH = 94%]
Pressure (altimeter): 30.15 inches Hg (1021.0 mb)
Winds: calm
Visibility: 6 or more miles (10+ km)
Ceiling: at least 12,000 feet AGL
Clouds: few clouds at 1800 feet AGL
scattered clouds at 2500 feet AGL
Weather: no significant weather observed at this time

METAR text: LGKR 051950Z 00000KT 9999 FEW018 SCT025 12/11 Q1021 NOSIG
Conditions at: LGKR (IOANNIS KAPODIST, GR) observed 1950 UTC 05 December 2022
Temperature: 12.0°C (54°F)
Dewpoint: 11.0°C (52°F) [RH = 94%]
Pressure (altimeter): 30.15 inches Hg (1021.0 mb)
Winds: calm
Visibility: 6 or more miles (10+ km)
Ceiling: at least 12,000 feet AGL
Clouds: few clouds at 1800 feet AGL
scattered clouds at 2500 feet AGL
Weather: no significant weather observed at this time

METAR text: LGKR 051920Z 00000KT 9999 FEW018 SCT025 13/12 Q1021 NOSIG
Conditions at: LGKR (IOANNIS KAPODIST, GR) observed 1920 UTC 05 December 2022
Temperature: 13.0°C (55°F)
Dewpoint: 12.0°C (54°F) [RH = 94%]
Pressure (altimeter): 30.15 inches Hg (1021.0 mb)
Winds: calm
Visibility: 6 or more miles (10+ km)
Ceiling: at least 12,000 feet AGL
Clouds: few clouds at 1800 feet AGL
scattered clouds at 2500 feet AGL
Weather: no significant weather observed at this time

METAR text: LGKR 051850Z 00000KT 9999 FEW018 SCT025 13/12 Q1021 NOSIG
Conditions at: LGKR (IOANNIS KAPODIST, GR) observed 1850 UTC 05 December 2022
Temperature: 13.0°C (55°F)
Dewpoint: 12.0°C (54°F) [RH = 94%]
Pressure (altimeter): 30.15 inches Hg (1021.0 mb)
Winds: calm
Visibility: 6 or more miles (10+ km)
Ceiling: at least 12,000 feet AGL
Clouds: few clouds at 1800 feet AGL
scattered clouds at 2500 feet AGL
Weather: no significant weather observed at this time

Forecast for: LGKR (IOANNIS KAPODIST, GR)
Text: TAF LGKR 070500Z 0706/0806 13010KT 9999 SCT015 BKN025
Forecast period: 0600 UTC 07 December 2022 to 0600 UTC 08 December 2022
Forecast type: FROM: standard forecast or significant change
Winds: from the SE (130 degrees) at 12 MPH (10 knots; 5.1 m/s)
Visibility: 6 or more miles (10+ km)
Ceiling: 2500 feet AGL
Clouds: scattered clouds at 1500 feet AGL
broken clouds at 2500 feet AGL
Weather: no significant weather forecast for this period
Text: PROB40
Forecast period: 0600 UTC 07 December 2022 to 0600 UTC 08 December 2022
Forecast type: TEMPORARY: The following changes expected for less than half the time period
Visibility: 3 miles (5 km)
Ceiling: 2500 feet AGL
Clouds: scattered clouds at 1200 feet AGL
few clouds at 1800 feet AGL
broken clouds at 2500 feet AGL
Weather: RA  (moderate rain)
Text: TEMPO 0706/0806 5000 RA SCT012 FEW018TCU BKN025
Forecast period: 1500 to 1800 UTC 07 December 2022
Forecast type: TEMPORARY: The following changes expected for less than half the time period
Visibility: 2.49 miles (4.01 km)
Ceiling: 2000 feet AGL
Clouds: scattered clouds at 800 feet AGL
few clouds at 1800 feet AGL
broken clouds at 2000 feet AGL
Weather: TSRA  (rain associated with thunderstorm(s))